Time;durP1;ratioP1;P1;durP2;ratioP2;P2;SDS_P1;SDS_P2;PMS_P1;PMS_P2;Temp;Humidity;BMP_temperature;BMP_pressure;BME280_temperature;BME280_humidity;BME280_pressure;Samples;Min_cycle;Max_cycle;Signal;HPM_P1;HPM_P2
2023/08/06 00:00:21;;;;;;;3.83;1.30;;;;;;;;;;6214038;23;20035;-62
2023/08/06 00:02:48;;;;;;;1.40;1.03;;;;;;;;;;6216046;23;20028;-62
2023/08/06 00:05:20;;;;;;;2.10;1.10;;;;;;;;;;6217754;23;20001;-62
2023/08/06 00:07:48;;;;;;;3.43;1.03;;;;;;;;;;6217456;23;20005;-61
2023/08/06 00:10:14;;;;;;;1.47;0.87;;;;;;;;;;6217407;23;20016;-62
2023/08/06 00:12:41;;;;;;;1.30;0.97;;;;;;;;;;6211998;23;20428;-62
2023/08/06 00:15:08;;;;;;;1.27;0.90;;;;;;;;;;6210942;23;20436;-62
2023/08/06 00:17:35;;;;;;;1.77;0.83;;;;;;;;;;6211288;23;20000;-62
2023/08/06 00:20:06;;;;;;;1.43;1.00;;;;;;;;;;6209314;23;20004;-62
2023/08/06 00:22:33;;;;;;;2.27;1.20;;;;;;;;;;6214389;23;20005;-62
2023/08/06 00:25:00;;;;;;;0.77;0.60;;;;;;;;;;6217488;23;20005;-62
2023/08/06 00:27:27;;;;;;;1.23;0.87;;;;;;;;;;6217675;23;20088;-62
2023/08/06 00:29:54;;;;;;;1.87;1.23;;;;;;;;;;6215097;23;20016;-63
2023/08/06 00:32:21;;;;;;;1.70;1.00;;;;;;;;;;6217539;23;20084;-61
2023/08/06 00:34:50;;;;;;;0.90;0.70;;;;;;;;;;6212697;23;20004;-62
2023/08/06 00:37:20;;;;;;;1.50;1.13;;;;;;;;;;6209605;23;20001;-62
2023/08/06 00:39:46;;;;;;;3.07;1.57;;;;;;;;;;6209262;23;20083;-62
2023/08/06 00:42:13;;;;;;;5.07;1.63;;;;;;;;;;6208077;23;20016;-62
2023/08/06 00:44:40;;;;;;;0.77;0.70;;;;;;;;;;6210492;23;20012;-63
2023/08/06 00:47:08;;;;;;;1.23;0.93;;;;;;;;;;6215862;23;20001;-61
2023/08/06 00:49:35;;;;;;;2.77;1.40;;;;;;;;;;6215779;23;20005;-62
2023/08/06 00:52:03;;;;;;;1.80;1.00;;;;;;;;;;6215639;23;20001;-62
2023/08/06 00:54:30;;;;;;;1.60;0.90;;;;;;;;;;6214153;23;20012;-62
2023/08/06 00:56:57;;;;;;;2.53;0.53;;;;;;;;;;6212419;23;20001;-61
2023/08/06 00:59:24;;;;;;;1.90;1.07;;;;;;;;;;6209549;23;20338;-62
2023/08/06 01:01:52;;;;;;;2.37;1.10;;;;;;;;;;6209041;23;20008;-61
2023/08/06 01:04:19;;;;;;;0.70;0.57;;;;;;;;;;6209339;23;20009;-62
2023/08/06 01:06:48;;;;;;;2.47;1.40;;;;;;;;;;6212262;23;20072;-61
2023/08/06 01:09:33;;;;;;;0.63;0.43;;;;;;;;;;6215512;23;20059;-61
2023/08/06 01:12:06;;;;;;;1.67;1.13;;;;;;;;;;6215237;23;20013;-61
2023/08/06 01:14:47;;;;;;;1.70;1.17;;;;;;;;;;6215709;23;20019;-61
2023/08/06 01:17:13;;;;;;;3.03;1.20;;;;;;;;;;6215281;23;20039;-61
2023/08/06 01:19:40;;;;;;;5.27;1.13;;;;;;;;;;6210769;23;20436;-61
2023/08/06 01:22:07;;;;;;;5.73;1.03;;;;;;;;;;6207534;23;20313;-62
2023/08/06 01:24:34;;;;;;;8.73;1.10;;;;;;;;;;6209104;23;20342;-61
2023/08/06 01:27:23;;;;;;;2.03;1.20;;;;;;;;;;6209382;23;20004;-61
2023/08/06 01:29:54;;;;;;;1.77;1.17;;;;;;;;;;6213796;23;20083;-61
2023/08/06 01:32:22;;;;;;;3.50;1.30;;;;;;;;;;6215597;23;20460;-61
2023/08/06 01:34:49;;;;;;;2.10;1.00;;;;;;;;;;6215187;23;20428;-61
2023/08/06 01:37:16;;;;;;;1.77;1.20;;;;;;;;;;6215163;23;20075;-62
2023/08/06 01:39:46;;;;;;;3.03;1.43;;;;;;;;;;6213465;23;20074;-61
2023/08/06 01:42:13;;;;;;;1.70;1.07;;;;;;;;;;6209968;23;20332;-62
2023/08/06 01:44:39;;;;;;;1.43;0.90;;;;;;;;;;6209244;23;20024;-61
2023/08/06 01:47:06;;;;;;;2.20;1.53;;;;;;;;;;6208553;23;20000;-62
2023/08/06 01:49:33;;;;;;;1.63;0.97;;;;;;;;;;6208645;23;20008;-61
2023/08/06 01:52:00;;;;;;;1.63;1.00;;;;;;;;;;6213409;23;20001;-61
2023/08/06 01:54:27;;;;;;;1.20;0.93;;;;;;;;;;6215303;23;20001;-61
2023/08/06 01:56:54;;;;;;;5.13;2.00;;;;;;;;;;6215555;23;20011;-61
2023/08/06 01:59:21;;;;;;;4.30;2.37;;;;;;;;;;6215460;23;20001;-61
2023/08/06 02:01:48;;;;;;;2.53;1.77;;;;;;;;;;6215158;23;20011;-62
2023/08/06 02:04:14;;;;;;;4.80;2.30;;;;;;;;;;6210189;23;20008;-62
2023/08/06 02:06:41;;;;;;;3.57;1.87;;;;;;;;;;6207823;23;20031;-61
2023/08/06 02:09:08;;;;;;;6.63;2.47;;;;;;;;;;6209520;23;20008;-61
2023/08/06 02:11:35;;;;;;;5.20;1.87;;;;;;;;;;6208949;23;20008;-61
2023/08/06 02:14:01;;;;;;;2.17;1.40;;;;;;;;;;6212914;23;20000;-62
2023/08/06 02:16:28;;;;;;;4.90;1.43;;;;;;;;;;6215318;23;20387;-61
2023/08/06 02:18:55;;;;;;;1.97;1.33;;;;;;;;;;6215173;23;20004;-61
2023/08/06 02:21:22;;;;;;;4.13;1.47;;;;;;;;;;6214671;23;19997;-61
2023/08/06 02:23:49;;;;;;;2.50;1.23;;;;;;;;;;6215202;23;20005;-61
2023/08/06 02:26:16;;;;;;;2.77;1.87;;;;;;;;;;6210657;23;20005;-62
2023/08/06 02:28:42;;;;;;;4.70;1.63;;;;;;;;;;6208917;23;20008;-62
2023/08/06 02:31:09;;;;;;;11.83;1.87;;;;;;;;;;6209100;23;20012;-61
2023/08/06 02:33:36;;;;;;;2.57;1.60;;;;;;;;;;6209111;23;20022;-61
2023/08/06 02:36:04;;;;;;;4.23;1.80;;;;;;;;;;6212424;23;20008;-62
2023/08/06 02:38:31;;;;;;;3.03;1.80;;;;;;;;;;6214834;23;20020;-61
2023/08/06 02:40:58;;;;;;;2.43;1.77;;;;;;;;;;6215086;23;20008;-61
2023/08/06 02:43:24;;;;;;;5.93;2.03;;;;;;;;;;6215113;23;20001;-61
2023/08/06 02:45:51;;;;;;;1.77;1.10;;;;;;;;;;6213292;23;20428;-61
2023/08/06 02:48:18;;;;;;;6.97;2.33;;;;;;;;;;6210952;23;20010;-61
2023/08/06 02:50:45;;;;;;;4.07;2.03;;;;;;;;;;6208734;23;20070;-61
2023/08/06 02:53:11;;;;;;;3.20;2.10;;;;;;;;;;6208522;23;20005;-61
2023/08/06 02:55:38;;;;;;;2.80;1.77;;;;;;;;;;6208944;23;20007;-61
2023/08/06 02:58:05;;;;;;;3.20;1.40;;;;;;;;;;6210280;23;20009;-61
2023/08/06 03:00:32;;;;;;;3.13;1.63;;;;;;;;;;6214839;23;20001;-61
2023/08/06 03:02:59;;;;;;;2.53;1.10;;;;;;;;;;6212866;23;20013;-61
2023/08/06 03:05:25;;;;;;;1.13;0.90;;;;;;;;;;6214845;23;20004;-61
2023/08/06 03:07:52;;;;;;;3.07;1.50;;;;;;;;;;6213037;23;20325;-61
2023/08/06 03:10:19;;;;;;;9.60;1.80;;;;;;;;;;6211050;23;20306;-61
2023/08/06 03:12:46;;;;;;;5.13;1.30;;;;;;;;;;6208667;23;20016;-61
2023/08/06 03:15:13;;;;;;;3.93;1.73;;;;;;;;;;6208835;23;20000;-61
2023/08/06 03:17:40;;;;;;;2.13;1.10;;;;;;;;;;6208828;23;20000;-61
2023/08/06 03:20:07;;;;;;;1.43;0.93;;;;;;;;;;6211450;23;20455;-62
2023/08/06 03:22:34;;;;;;;0.87;0.80;;;;;;;;;;6214785;23;20001;-61
2023/08/06 03:25:01;;;;;;;2.20;1.43;;;;;;;;;;6213954;23;20008;-62
2023/08/06 03:27:27;;;;;;;8.17;1.57;;;;;;;;;;6214777;23;20072;-62
2023/08/06 03:29:54;;;;;;;1.13;0.83;;;;;;;;;;6214558;23;20001;-62
2023/08/06 03:32:21;;;;;;;1.20;0.87;;;;;;;;;;6211559;23;20012;-62
2023/08/06 03:34:48;;;;;;;3.30;1.27;;;;;;;;;;6207842;23;20005;-62
2023/08/06 03:37:15;;;;;;;1.47;1.00;;;;;;;;;;6208373;23;20008;-62
2023/08/06 03:39:41;;;;;;;2.97;1.03;;;;;;;;;;6208567;23;20019;-62
2023/08/06 03:42:08;;;;;;;2.93;1.43;;;;;;;;;;6210726;23;20000;-62
2023/08/06 03:44:35;;;;;;;1.23;0.87;;;;;;;;;;6214479;23;20760;-62
2023/08/06 03:47:02;;;;;;;0.50;0.50;;;;;;;;;;6214705;23;20046;-62
2023/08/06 03:49:28;;;;;;;9.23;1.50;;;;;;;;;;6214588;23;20016;-61
2023/08/06 03:51:55;;;;;;;4.13;1.50;;;;;;;;;;6214720;23;20432;-61
2023/08/06 03:54:22;;;;;;;2.37;1.13;;;;;;;;;;6211425;23;20429;-61
2023/08/06 03:56:49;;;;;;;1.33;0.87;;;;;;;;;;6208061;23;20001;-62
2023/08/06 03:59:15;;;;;;;1.03;0.77;;;;;;;;;;6208607;23;20043;-61
2023/08/06 04:01:42;;;;;;;0.83;0.63;;;;;;;;;;6208499;23;20016;-61
2023/08/06 04:04:09;;;;;;;5.33;1.13;;;;;;;;;;6210587;23;20011;-61
2023/08/06 04:06:36;;;;;;;1.20;0.80;;;;;;;;;;6212964;23;20333;-61
2023/08/06 04:09:03;;;;;;;1.73;0.97;;;;;;;;;;6214625;23;20008;-61
2023/08/06 04:11:29;;;;;;;2.47;1.10;;;;;;;;;;6216231;23;20467;-61
2023/08/06 04:13:56;;;;;;;1.47;0.80;;;;;;;;;;6214080;23;20008;-61
2023/08/06 04:16:23;;;;;;;1.33;0.83;;;;;;;;;;6213795;23;20005;-61
2023/08/06 04:18:50;;;;;;;1.40;1.00;;;;;;;;;;6210209;23;20005;-61
2023/08/06 04:21:16;;;;;;;4.27;1.10;;;;;;;;;;6210270;23;20000;-62
2023/08/06 04:23:43;;;;;;;1.90;1.27;;;;;;;;;;6210352;23;20000;-62
2023/08/06 04:26:10;;;;;;;13.60;1.23;;;;;;;;;;6212095;23;20004;-61
2023/08/06 04:28:37;;;;;;;1.50;0.97;;;;;;;;;;6216233;23;20076;-62
2023/08/06 04:31:04;;;;;;;3.03;1.23;;;;;;;;;;6216164;23;20019;-61
2023/08/06 04:33:30;;;;;;;3.50;1.10;;;;;;;;;;6216217;23;20008;-61
2023/08/06 04:35:58;;;;;;;0.47;0.40;;;;;;;;;;6216376;23;20001;-61
2023/08/06 04:38:25;;;;;;;0.40;0.33;;;;;;;;;;6213968;23;20013;-61
2023/08/06 04:40:52;;;;;;;0.97;0.67;;;;;;;;;;6210092;23;20328;-61
2023/08/06 04:43:19;;;;;;;0.70;0.50;;;;;;;;;;6210024;23;20382;-62
2023/08/06 04:45:50;;;;;;;0.60;0.60;;;;;;;;;;6209531;23;20028;-61
2023/08/06 04:48:16;;;;;;;3.37;0.60;;;;;;;;;;6211646;23;20015;-61
2023/08/06 04:50:46;;;;;;;2.50;0.93;;;;;;;;;;6215877;23;20500;-61
2023/08/06 04:53:13;;;;;;;0.90;0.60;;;;;;;;;;6215893;23;20428;-61
2023/08/06 04:55:40;;;;;;;3.10;1.37;;;;;;;;;;6216129;23;20057;-61
2023/08/06 04:58:07;;;;;;;4.57;0.70;;;;;;;;;;6214423;23;20012;-61
2023/08/06 05:00:34;;;;;;;1.67;0.93;;;;;;;;;;6212940;23;20005;-61
2023/08/06 05:03:01;;;;;;;2.53;1.00;;;;;;;;;;6210056;23;20011;-61
2023/08/06 05:05:28;;;;;;;2.50;1.33;;;;;;;;;;6209860;23;20319;-61
2023/08/06 05:07:56;;;;;;;1.20;0.70;;;;;;;;;;6209805;23;20080;-61
2023/08/06 05:10:25;;;;;;;1.40;0.73;;;;;;;;;;6210938;23;20408;-61
2023/08/06 05:12:52;;;;;;;0.97;0.67;;;;;;;;;;6215898;23;20027;-61
2023/08/06 05:15:19;;;;;;;7.93;1.43;;;;;;;;;;6215197;23;20035;-61
2023/08/06 05:17:46;;;;;;;1.27;0.80;;;;;;;;;;6213889;23;20016;-61
2023/08/06 05:20:12;;;;;;;6.77;1.03;;;;;;;;;;6215722;23;20008;-60
2023/08/06 05:22:39;;;;;;;1.53;0.90;;;;;;;;;;6213705;23;20028;-61
2023/08/06 05:25:06;;;;;;;2.27;1.13;;;;;;;;;;6209821;23;20008;-61
2023/08/06 05:27:33;;;;;;;3.80;1.27;;;;;;;;;;6209661;23;20502;-60
2023/08/06 05:30:00;;;;;;;0.53;0.53;;;;;;;;;;6209086;23;20103;-61
2023/08/06 05:32:27;;;;;;;2.60;1.07;;;;;;;;;;6210625;23;20004;-61
2023/08/06 05:34:53;;;;;;;1.43;0.80;;;;;;;;;;6215573;23;20451;-61
2023/08/06 05:37:20;;;;;;;1.27;0.70;;;;;;;;;;6215779;23;20321;-60
2023/08/06 05:39:47;;;;;;;1.27;0.60;;;;;;;;;;6215390;23;20009;-60
2023/08/06 05:42:14;;;;;;;0.80;0.60;;;;;;;;;;6215563;23;20079;-60
2023/08/06 05:44:40;;;;;;;4.23;0.97;;;;;;;;;;6212386;23;20015;-60
2023/08/06 05:47:07;;;;;;;8.13;1.30;;;;;;;;;;6209219;23;20004;-61
2023/08/06 05:49:34;;;;;;;3.57;0.93;;;;;;;;;;6209427;23;20004;-61
2023/08/06 05:52:02;;;;;;;1.07;0.83;;;;;;;;;;6209255;23;19997;-60
2023/08/06 05:54:29;;;;;;;1.23;0.80;;;;;;;;;;6210143;23;20443;-61
2023/08/06 05:56:55;;;;;;;1.23;0.53;;;;;;;;;;6215572;23;20001;-60
2023/08/06 05:59:22;;;;;;;0.50;0.50;;;;;;;;;;6215275;23;20000;-61
2023/08/06 06:01:49;;;;;;;0.43;0.43;;;;;;;;;;6214987;23;20008;-61
2023/08/06 06:04:16;;;;;;;0.87;0.63;;;;;;;;;;6215409;23;20005;-61
2023/08/06 06:06:43;;;;;;;1.83;1.10;;;;;;;;;;6214224;23;20015;-61
2023/08/06 06:09:10;;;;;;;1.40;0.77;;;;;;;;;;6209072;23;20011;-61
2023/08/06 06:11:36;;;;;;;1.50;0.93;;;;;;;;;;6209268;23;20008;-61
2023/08/06 06:14:03;;;;;;;1.17;0.60;;;;;;;;;;6209165;23;20012;-61
2023/08/06 06:16:30;;;;;;;1.40;0.87;;;;;;;;;;6209534;23;20008;-61
2023/08/06 06:18:57;;;;;;;2.27;1.03;;;;;;;;;;6214663;23;20008;-61
2023/08/06 06:21:24;;;;;;;1.50;1.00;;;;;;;;;;6215364;23;20002;-61
2023/08/06 06:23:51;;;;;;;1.13;0.73;;;;;;;;;;6215257;23;20064;-60
2023/08/06 06:26:19;;;;;;;10.97;1.30;;;;;;;;;;6214714;23;20009;-61
2023/08/06 06:28:46;;;;;;;0.77;0.70;;;;;;;;;;6214266;23;20011;-60
2023/08/06 06:31:13;;;;;;;0.40;0.40;;;;;;;;;;6208994;23;20008;-60
2023/08/06 06:33:39;;;;;;;0.90;0.60;;;;;;;;;;6208490;23;20059;-61
2023/08/06 06:36:07;;;;;;;1.50;0.90;;;;;;;;;;6209072;23;20000;-61
2023/08/06 06:38:34;;;;;;;2.10;0.77;;;;;;;;;;6208627;23;20438;-61
2023/08/06 06:41:03;;;;;;;1.03;0.63;;;;;;;;;;6215189;23;20001;-61
2023/08/06 06:43:29;;;;;;;0.70;0.50;;;;;;;;;;6214110;23;20522;-61
2023/08/06 06:46:02;;;;;;;3.50;1.00;;;;;;;;;;6215081;23;20004;-61
2023/08/06 06:48:30;;;;;;;0.70;0.67;;;;;;;;;;6214781;23;20007;-61
2023/08/06 06:50:57;;;;;;;5.70;0.53;;;;;;;;;;6214076;23;20084;-61
2023/08/06 06:53:32;;;;;;;2.20;1.00;;;;;;;;;;6208874;23;19997;-60
2023/08/06 06:56:03;;;;;;;1.10;0.70;;;;;;;;;;6209016;23;20004;-61
2023/08/06 06:58:30;;;;;;;0.97;0.57;;;;;;;;;;6208697;23;20000;-61
2023/08/06 07:00:57;;;;;;;0.63;0.50;;;;;;;;;;6208725;23;20219;-61
2023/08/06 07:03:24;;;;;;;0.97;0.50;;;;;;;;;;6214940;23;20001;-61
2023/08/06 07:05:51;;;;;;;2.47;1.33;;;;;;;;;;6214690;23;20131;-60
2023/08/06 07:08:18;;;;;;;0.70;0.63;;;;;;;;;;6214796;23;20008;-61
2023/08/06 07:10:44;;;;;;;1.77;0.90;;;;;;;;;;6214651;23;20020;-60
2023/08/06 07:13:11;;;;;;;0.40;0.40;;;;;;;;;;6213838;23;20024;-61
2023/08/06 07:15:38;;;;;;;5.50;0.93;;;;;;;;;;6208596;23;20421;-61
2023/08/06 07:18:05;;;;;;;5.20;1.00;;;;;;;;;;6208581;23;20467;-60
2023/08/06 07:20:32;;;;;;;2.33;0.70;;;;;;;;;;6208716;23;20062;-60
2023/08/06 07:23:00;;;;;;;0.40;0.40;;;;;;;;;;6208729;23;20298;-60
2023/08/06 07:25:26;;;;;;;1.13;0.70;;;;;;;;;;6214798;23;20004;-61
2023/08/06 07:27:53;;;;;;;0.87;0.70;;;;;;;;;;6214612;23;20015;-61
2023/08/06 07:30:20;;;;;;;0.87;0.60;;;;;;;;;;6212880;23;20051;-60
2023/08/06 07:32:47;;;;;;;3.40;0.50;;;;;;;;;;6213848;23;20008;-61
2023/08/06 07:35:14;;;;;;;1.33;0.87;;;;;;;;;;6213859;23;20011;-61
2023/08/06 07:37:41;;;;;;;0.87;0.73;;;;;;;;;;6208808;23;20008;-61
2023/08/06 07:40:08;;;;;;;1.10;0.73;;;;;;;;;;6208799;23;20008;-60
2023/08/06 07:42:35;;;;;;;1.90;0.83;;;;;;;;;;6208716;23;20329;-61
2023/08/06 07:45:02;;;;;;;1.03;0.70;;;;;;;;;;6210578;23;20015;-60
2023/08/06 07:47:29;;;;;;;0.70;0.50;;;;;;;;;;6215923;23;20004;-61
2023/08/06 07:49:56;;;;;;;0.87;0.70;;;;;;;;;;6216686;23;20014;-61
2023/08/06 07:52:23;;;;;;;0.70;0.60;;;;;;;;;;6216547;23;20035;-61
2023/08/06 07:54:49;;;;;;;4.70;1.07;;;;;;;;;;6216548;23;20080;-61
2023/08/06 07:57:16;;;;;;;0.77;0.57;;;;;;;;;;6214472;23;20036;-60
2023/08/06 07:59:43;;;;;;;1.17;0.87;;;;;;;;;;6210877;23;20074;-60
2023/08/06 08:02:10;;;;;;;7.23;0.90;;;;;;;;;;6210469;23;20011;-61
2023/08/06 08:04:37;;;;;;;2.17;1.20;;;;;;;;;;6210039;23;20000;-60
2023/08/06 08:07:04;;;;;;;1.33;0.80;;;;;;;;;;6210334;23;20005;-61
2023/08/06 08:09:30;;;;;;;0.67;0.60;;;;;;;;;;6215262;23;20079;-60
2023/08/06 08:11:58;;;;;;;0.97;0.80;;;;;;;;;;6216412;23;20012;-61
2023/08/06 08:14:25;;;;;;;1.07;0.70;;;;;;;;;;6216509;23;20001;-61
2023/08/06 08:16:52;;;;;;;2.53;1.20;;;;;;;;;;6216420;23;20004;-60
2023/08/06 08:19:19;;;;;;;1.43;1.33;;;;;;;;;;6215860;23;20001;-61
2023/08/06 08:21:46;;;;;;;1.30;0.93;;;;;;;;;;6210296;23;20032;-61
2023/08/06 08:24:13;;;;;;;2.50;0.90;;;;;;;;;;6210329;23;20428;-61
2023/08/06 08:26:39;;;;;;;2.73;0.83;;;;;;;;;;6208585;23;20305;-60
2023/08/06 08:29:06;;;;;;;3.17;1.43;;;;;;;;;;6210347;23;20413;-61
2023/08/06 08:31:38;;;;;;;1.07;0.70;;;;;;;;;;6215316;23;20424;-60
2023/08/06 08:34:05;;;;;;;0.97;0.60;;;;;;;;;;6215729;23;20004;-60
2023/08/06 08:36:32;;;;;;;1.00;0.63;;;;;;;;;;6216385;23;20004;-60
2023/08/06 08:38:59;;;;;;;8.17;1.20;;;;;;;;;;6216253;23;20027;-61
2023/08/06 08:41:28;;;;;;;1.63;0.63;;;;;;;;;;6214494;23;20440;-60
2023/08/06 08:43:56;;;;;;;1.23;0.73;;;;;;;;;;6209918;23;20164;-61
2023/08/06 08:46:23;;;;;;;4.23;0.63;;;;;;;;;;6210233;23;20000;-61
2023/08/06 08:48:50;;;;;;;2.97;1.03;;;;;;;;;;6209667;23;20076;-61
2023/08/06 08:51:17;;;;;;;0.93;0.80;;;;;;;;;;6210050;23;20035;-60
2023/08/06 08:53:45;;;;;;;1.37;0.97;;;;;;;;;;6215866;23;20329;-61
2023/08/06 08:56:14;;;;;;;1.43;1.07;;;;;;;;;;6215562;23;20084;-60
2023/08/06 08:58:41;;;;;;;0.30;0.30;;;;;;;;;;6216004;23;20298;-60
2023/08/06 09:01:09;;;;;;;2.43;1.13;;;;;;;;;;6215834;23;20306;-60
2023/08/06 09:03:37;;;;;;;1.40;0.50;;;;;;;;;;6215554;23;20008;-60
2023/08/06 09:06:04;;;;;;;0.43;0.40;;;;;;;;;;6209873;23;20028;-61
2023/08/06 09:08:37;;;;;;;1.17;1.00;;;;;;;;;;6209829;23;20034;-61
2023/08/06 09:11:05;;;;;;;4.43;1.17;;;;;;;;;;6209803;23;20020;-61
2023/08/06 09:13:32;;;;;;;3.90;1.97;;;;;;;;;;6209654;23;20058;-61
2023/08/06 09:15:59;;;;;;;0.77;0.73;;;;;;;;;;6214832;23;20005;-61
2023/08/06 09:18:29;;;;;;;9.70;1.10;;;;;;;;;;6215886;23;20455;-60
2023/08/06 09:20:56;;;;;;;0.47;0.47;;;;;;;;;;6215743;23;20005;-61
2023/08/06 09:23:30;;;;;;;1.57;0.80;;;;;;;;;;6215926;23;20005;-60
2023/08/06 09:25:57;;;;;;;1.13;0.87;;;;;;;;;;6215226;23;20016;-61
2023/08/06 09:28:26;;;;;;;0.97;0.70;;;;;;;;;;6209368;23;20062;-61
2023/08/06 09:30:57;;;;;;;2.00;1.53;;;;;;;;;;6209721;23;20008;-60
2023/08/06 09:33:24;;;;;;;4.00;1.73;;;;;;;;;;6209419;23;20001;-60
2023/08/06 09:35:50;;;;;;;2.37;1.40;;;;;;;;;;6209636;23;20001;-61
2023/08/06 09:38:17;;;;;;;2.57;1.47;;;;;;;;;;6215604;23;20471;-60
2023/08/06 09:40:44;;;;;;;2.27;1.30;;;;;;;;;;6215600;23;20310;-61
2023/08/06 09:43:13;;;;;;;4.67;1.13;;;;;;;;;;6214993;23;20337;-60
2023/08/06 09:45:40;;;;;;;4.23;1.23;;;;;;;;;;6213816;23;20336;-61
2023/08/06 09:48:08;;;;;;;2.13;1.13;;;;;;;;;;6214905;23;20004;-60
2023/08/06 09:50:36;;;;;;;1.53;0.90;;;;;;;;;;6209296;23;20013;-61
2023/08/06 09:53:04;;;;;;;1.73;1.10;;;;;;;;;;6209641;23;20008;-60
2023/08/06 09:55:31;;;;;;;3.57;1.43;;;;;;;;;;6209407;23;20012;-61
2023/08/06 09:57:59;;;;;;;1.03;0.87;;;;;;;;;;6209146;23;20444;-60
2023/08/06 10:00:26;;;;;;;2.83;1.13;;;;;;;;;;6215542;23;20009;-61
2023/08/06 10:02:57;;;;;;;3.90;1.50;;;;;;;;;;6215457;23;20025;-61
2023/08/06 10:05:24;;;;;;;2.23;1.40;;;;;;;;;;6215269;23;20001;-61
2023/08/06 10:07:51;;;;;;;2.07;1.33;;;;;;;;;;6214593;23;20063;-60
2023/08/06 10:10:21;;;;;;;1.40;1.07;;;;;;;;;;6214394;23;20038;-61
2023/08/06 10:12:50;;;;;;;2.87;1.37;;;;;;;;;;6209304;23;20417;-60
2023/08/06 10:15:18;;;;;;;1.40;0.70;;;;;;;;;;6209445;23;20008;-61
2023/08/06 10:17:46;;;;;;;1.67;0.90;;;;;;;;;;6209009;23;20015;-61
2023/08/06 10:20:13;;;;;;;1.27;0.80;;;;;;;;;;6209551;23;20059;-61
2023/08/06 10:22:46;;;;;;;2.47;1.20;;;;;;;;;;6215087;23;20062;-61
2023/08/06 10:25:17;;;;;;;1.00;0.73;;;;;;;;;;6215224;23;20011;-60
2023/08/06 10:27:49;;;;;;;1.13;0.90;;;;;;;;;;6215216;23;20012;-60
2023/08/06 10:30:33;;;;;;;1.47;1.20;;;;;;;;;;6214811;23;20009;-60
2023/08/06 10:33:01;;;;;;;3.60;1.50;;;;;;;;;;6212538;23;20000;-61
2023/08/06 10:35:38;;;;;;;3.13;1.13;;;;;;;;;;6209176;23;20012;-60
2023/08/06 10:38:13;;;;;;;1.63;1.37;;;;;;;;;;6209104;23;20436;-60
2023/08/06 10:41:02;;;;;;;1.38;1.02;;;;;;;;;;6208933;23;20108;-60
2023/08/06 10:43:30;;;;;;;1.43;1.00;;;;;;;;;;6203946;23;20015;-61
2023/08/06 10:45:58;;;;;;;1.67;1.50;;;;;;;;;;6215010;23;20062;-60
2023/08/06 10:48:41;;;;;;;0.93;0.73;;;;;;;;;;6215101;23;20324;-61
2023/08/06 10:51:11;;;;;;;1.33;0.97;;;;;;;;;;6214711;23;20451;-61
2023/08/06 10:53:39;;;;;;;2.23;1.47;;;;;;;;;;6214906;23;20000;-60
2023/08/06 10:56:15;;;;;;;1.53;0.80;;;;;;;;;;6208908;23;20329;-60
2023/08/06 10:58:42;;;;;;;3.37;1.57;;;;;;;;;;6208718;23;20001;-61
2023/08/06 11:01:09;;;;;;;1.40;1.10;;;;;;;;;;6209018;23;20005;-60
2023/08/06 11:03:36;;;;;;;0.93;0.83;;;;;;;;;;6208880;23;20024;-61
2023/08/06 11:06:03;;;;;;;1.63;1.20;;;;;;;;;;6213072;23;20056;-61
2023/08/06 11:08:35;;;;;;;1.67;1.17;;;;;;;;;;6213976;23;20008;-61
2023/08/06 11:11:12;;;;;;;3.97;1.20;;;;;;;;;;6214490;23;20044;-60
2023/08/06 11:13:46;;;;;;;1.63;1.23;;;;;;;;;;6214764;23;20005;-60
2023/08/06 11:16:20;;;;;;;3.23;1.00;;;;;;;;;;6214418;23;20328;-61
2023/08/06 11:18:47;;;;;;;1.90;1.33;;;;;;;;;;6208464;23;20005;-61
2023/08/06 11:21:14;;;;;;;1.47;0.83;;;;;;;;;;6208955;23;20484;-60
2023/08/06 11:23:41;;;;;;;1.83;1.13;;;;;;;;;;6209106;23;20021;-61
2023/08/06 11:26:08;;;;;;;0.93;0.80;;;;;;;;;;6208871;23;20495;-60
2023/08/06 11:28:35;;;;;;;1.47;1.07;;;;;;;;;;6213431;23;20005;-60
2023/08/06 11:31:03;;;;;;;1.03;0.90;;;;;;;;;;6212885;23;20044;-61
2023/08/06 11:33:31;;;;;;;2.13;1.43;;;;;;;;;;6214675;23;20055;-60
2023/08/06 11:35:59;;;;;;;3.20;1.43;;;;;;;;;;6214787;23;20005;-60
2023/08/06 11:38:29;;;;;;;2.23;1.47;;;;;;;;;;6212983;23;20012;-61
2023/08/06 11:40:56;;;;;;;0.77;0.63;;;;;;;;;;6208837;23;20004;-60
2023/08/06 11:43:24;;;;;;;1.87;1.23;;;;;;;;;;6208059;23;20000;-60
2023/08/06 11:45:53;;;;;;;1.97;1.30;;;;;;;;;;6208777;23;20382;-61
2023/08/06 11:48:20;;;;;;;3.37;1.57;;;;;;;;;;6208742;23;20027;-60
2023/08/06 11:50:47;;;;;;;1.60;1.33;;;;;;;;;;6213725;23;20063;-61
2023/08/06 11:53:14;;;;;;;4.00;2.17;;;;;;;;;;6214661;23;20001;-60
2023/08/06 11:55:42;;;;;;;1.67;1.20;;;;;;;;;;6214450;23;20011;-60
2023/08/06 11:58:11;;;;;;;4.60;2.37;;;;;;;;;;6214139;23;20368;-60
2023/08/06 12:00:38;;;;;;;4.60;2.23;;;;;;;;;;6214822;23;20008;-60
2023/08/06 12:03:06;;;;;;;3.17;1.50;;;;;;;;;;6208462;23;20451;-60
2023/08/06 12:05:33;;;;;;;2.53;1.70;;;;;;;;;;6208880;23;20005;-60
2023/08/06 12:08:01;;;;;;;2.50;1.47;;;;;;;;;;6208237;23;20005;-60
2023/08/06 12:10:28;;;;;;;2.43;1.83;;;;;;;;;;6208215;23;20088;-61
2023/08/06 12:12:56;;;;;;;6.57;2.43;;;;;;;;;;6214029;23;20076;-60
2023/08/06 12:15:23;;;;;;;2.53;1.73;;;;;;;;;;6214690;23;20000;-60
2023/08/06 12:17:50;;;;;;;2.00;1.50;;;;;;;;;;6212712;23;20039;-61
2023/08/06 12:20:17;;;;;;;8.80;1.93;;;;;;;;;;6214494;23;20023;-60
2023/08/06 12:22:45;;;;;;;2.53;1.47;;;;;;;;;;6214576;23;20106;-60
2023/08/06 12:25:12;;;;;;;1.80;1.50;;;;;;;;;;6207639;23;20012;-61
2023/08/06 12:27:41;;;;;;;4.10;2.30;;;;;;;;;;6208379;23;20082;-60
2023/08/06 12:30:07;;;;;;;3.43;2.10;;;;;;;;;;6208542;23;20381;-60
2023/08/06 12:32:35;;;;;;;2.07;1.60;;;;;;;;;;6210405;23;20000;-60
2023/08/06 12:35:02;;;;;;;1.70;1.30;;;;;;;;;;6215633;23;20015;-60
2023/08/06 12:37:29;;;;;;;4.37;2.40;;;;;;;;;;6216122;23;20035;-61
2023/08/06 12:39:56;;;;;;;6.60;3.10;;;;;;;;;;6215543;23;20004;-61
2023/08/06 12:42:24;;;;;;;2.03;1.77;;;;;;;;;;6215977;23;20011;-60
2023/08/06 12:44:51;;;;;;;3.97;2.17;;;;;;;;;;6214379;23;20015;-60
2023/08/06 12:47:18;;;;;;;3.20;2.20;;;;;;;;;;6210196;23;20005;-61
2023/08/06 12:49:45;;;;;;;7.80;3.00;;;;;;;;;;6210038;23;20033;-60
2023/08/06 12:52:14;;;;;;;3.23;2.30;;;;;;;;;;6210545;23;20012;-60
2023/08/06 12:54:41;;;;;;;4.27;2.80;;;;;;;;;;6209167;23;20482;-60
2023/08/06 12:57:08;;;;;;;2.33;1.83;;;;;;;;;;6215155;23;20024;-60
2023/08/06 12:59:39;;;;;;;7.27;2.47;;;;;;;;;;6214486;23;20004;-60
2023/08/06 13:02:06;;;;;;;6.63;2.40;;;;;;;;;;6215983;23;20000;-60
2023/08/06 13:04:33;;;;;;;2.93;2.17;;;;;;;;;;6215972;23;20408;-60
2023/08/06 13:07:00;;;;;;;4.00;2.70;;;;;;;;;;6214167;23;20009;-60
2023/08/06 13:09:27;;;;;;;4.40;2.90;;;;;;;;;;6209325;23;20001;-61
2023/08/06 13:11:54;;;;;;;4.27;2.30;;;;;;;;;;6209839;23;20396;-60
2023/08/06 13:14:21;;;;;;;5.23;2.73;;;;;;;;;;6210183;23;20000;-61
2023/08/06 13:16:48;;;;;;;3.60;2.67;;;;;;;;;;6210012;23;20008;-60
2023/08/06 13:19:15;;;;;;;5.40;3.03;;;;;;;;;;6215248;23;20004;-60
2023/08/06 13:21:42;;;;;;;3.17;2.23;;;;;;;;;;6214186;23;20004;-60
2023/08/06 13:24:09;;;;;;;4.03;2.33;;;;;;;;;;6215210;23;20005;-61
2023/08/06 13:26:36;;;;;;;4.03;2.40;;;;;;;;;;6215798;23;20316;-60
2023/08/06 13:29:03;;;;;;;5.77;2.80;;;;;;;;;;6215717;23;20088;-60
2023/08/06 13:31:29;;;;;;;3.30;2.43;;;;;;;;;;6209236;23;20340;-61
2023/08/06 13:33:57;;;;;;;10.87;2.67;;;;;;;;;;6210096;23;20047;-60
2023/08/06 13:36:25;;;;;;;3.23;2.03;;;;;;;;;;6209714;23;20005;-60
2023/08/06 13:38:52;;;;;;;6.03;2.53;;;;;;;;;;6209151;23;20028;-61
2023/08/06 13:41:19;;;;;;;2.13;1.50;;;;;;;;;;6214650;23;20054;-60
2023/08/06 13:43:45;;;;;;;6.13;3.00;;;;;;;;;;6215533;23;20005;-60
2023/08/06 13:46:19;;;;;;;4.90;3.33;;;;;;;;;;6215673;23;20054;-60
2023/08/06 13:48:47;;;;;;;3.83;2.83;;;;;;;;;;6215432;23;20490;-61
2023/08/06 13:51:14;;;;;;;7.07;3.60;;;;;;;;;;6215364;23;20009;-60
2023/08/06 13:53:41;;;;;;;11.07;4.27;;;;;;;;;;6209532;23;20001;-60
2023/08/06 13:56:12;;;;;;;13.10;3.97;;;;;;;;;;6209569;23;20059;-60
2023/08/06 13:58:39;;;;;;;5.57;3.67;;;;;;;;;;6209528;23;20039;-61
2023/08/06 14:01:06;;;;;;;3.07;1.93;;;;;;;;;;6209525;23;20012;-61
2023/08/06 14:03:33;;;;;;;9.17;2.57;;;;;;;;;;6214540;23;20039;-61
2023/08/06 14:06:00;;;;;;;1.63;1.30;;;;;;;;;;6214628;23;20012;-61
2023/08/06 14:08:27;;;;;;;2.20;1.40;;;;;;;;;;6215561;23;20008;-61
2023/08/06 14:10:54;;;;;;;1.13;0.87;;;;;;;;;;6215219;23;20066;-60
2023/08/06 14:13:22;;;;;;;1.77;1.17;;;;;;;;;;6215685;23;20047;-61
2023/08/06 14:15:49;;;;;;;2.10;1.40;;;;;;;;;;6209044;23;20420;-61
2023/08/06 14:18:16;;;;;;;1.63;1.13;;;;;;;;;;6209101;23;20052;-62
2023/08/06 14:20:43;;;;;;;5.20;1.83;;;;;;;;;;6208797;23;20001;-62
2023/08/06 14:23:10;;;;;;;1.67;1.20;;;;;;;;;;6209049;23;20001;-62
2023/08/06 14:25:38;;;;;;;4.23;1.40;;;;;;;;;;6214453;23;20007;-61
2023/08/06 14:28:06;;;;;;;5.33;1.23;;;;;;;;;;6215278;23;20012;-61
2023/08/06 14:30:33;;;;;;;0.67;0.60;;;;;;;;;;6215100;23;20009;-61
2023/08/06 14:33:03;;;;;;;1.13;0.80;;;;;;;;;;6215253;23;20005;-61
2023/08/06 14:35:30;;;;;;;2.43;1.53;;;;;;;;;;6214588;23;20007;-61
2023/08/06 14:37:56;;;;;;;1.07;0.87;;;;;;;;;;6207117;23;20023;-61
2023/08/06 14:40:25;;;;;;;0.87;0.73;;;;;;;;;;6208865;23;20000;-61
2023/08/06 14:42:52;;;;;;;1.20;1.00;;;;;;;;;;6207535;23;20005;-61
2023/08/06 14:45:19;;;;;;;1.33;0.93;;;;;;;;;;6208979;23;20456;-61